Terminal Aerodrome Forecast
Issued by NWS

Home | Current Version | Previous Version | Graphics & Text | Print | Product List | Glossary Off
Versions: 1 2 3 4 5 6 7 8 9 10 11 12 13

000
FTUS43 KMPX 290520
TAFRWF
TAF
KRWF 290520Z 2906/3006 17022G30KT P6SM SCT090 BKN250
     FM290800 19019G27KT P6SM -RA BKN040 OVC090
     FM291000 22017G25KT P6SM OVC040
     FM291300 29021G33KT P6SM VCSH OVC035 PROB30 2915/2918 5SM -SHRA
      BKN025
     FM291800 32028G40KT P6SM BKN040
     FM300100 31015KT P6SM SKC=

USA.gov is the U.S. government's official web portal to all federal, state and local government web resources and services.